sensor_id;sensor_type;location;lat;lon;timestamp;temperature;humidity
4487;DHT22;2256;48.740;9.106;2023-03-23T00:01:11;12.90;92.40
4487;DHT22;2256;48.740;9.106;2023-03-23T00:03:40;13.00;92.50
4487;DHT22;2256;48.740;9.106;2023-03-23T00:06:09;13.00;92.60
4487;DHT22;2256;48.740;9.106;2023-03-23T00:08:38;13.00;92.70
4487;DHT22;2256;48.740;9.106;2023-03-23T00:11:10;12.90;92.70
4487;DHT22;2256;48.740;9.106;2023-03-23T00:13:41;12.90;92.90
4487;DHT22;2256;48.740;9.106;2023-03-23T00:16:08;12.90;92.90
4487;DHT22;2256;48.740;9.106;2023-03-23T00:18:43;12.90;93.00
4487;DHT22;2256;48.740;9.106;2023-03-23T00:21:10;12.90;93.20
4487;DHT22;2256;48.740;9.106;2023-03-23T00:23:39;12.90;92.90
4487;DHT22;2256;48.740;9.106;2023-03-23T00:26:06;13.00;93.00
4487;DHT22;2256;48.740;9.106;2023-03-23T00:28:33;13.10;92.90
4487;DHT22;2256;48.740;9.106;2023-03-23T00:31:02;13.10;92.70
4487;DHT22;2256;48.740;9.106;2023-03-23T00:33:30;13.10;92.60
4487;DHT22;2256;48.740;9.106;2023-03-23T00:35:59;13.00;92.70
4487;DHT22;2256;48.740;9.106;2023-03-23T00:38:26;12.90;92.80
4487;DHT22;2256;48.740;9.106;2023-03-23T00:40:54;12.90;92.80
4487;DHT22;2256;48.740;9.106;2023-03-23T00:43:23;12.90;92.60
4487;DHT22;2256;48.740;9.106;2023-03-23T00:45:51;13.00;92.70
4487;DHT22;2256;48.740;9.106;2023-03-23T00:48:19;12.90;92.90
4487;DHT22;2256;48.740;9.106;2023-03-23T00:50:46;12.90;92.80
4487;DHT22;2256;48.740;9.106;2023-03-23T00:53:13;12.80;93.00
4487;DHT22;2256;48.740;9.106;2023-03-23T00:55:41;12.80;92.90
4487;DHT22;2256;48.740;9.106;2023-03-23T00:58:10;12.70;93.00
4487;DHT22;2256;48.740;9.106;2023-03-23T01:00:37;12.80;93.00
4487;DHT22;2256;48.740;9.106;2023-03-23T01:03:04;12.90;92.80
4487;DHT22;2256;48.740;9.106;2023-03-23T01:05:34;12.90;92.80
4487;DHT22;2256;48.740;9.106;2023-03-23T01:08:01;12.80;92.80
4487;DHT22;2256;48.740;9.106;2023-03-23T01:10:28;12.90;92.80
4487;DHT22;2256;48.740;9.106;2023-03-23T01:12:58;12.80;92.90
4487;DHT22;2256;48.740;9.106;2023-03-23T01:15:27;12.70;93.10
4487;DHT22;2256;48.740;9.106;2023-03-23T01:17:55;12.70;93.20
4487;DHT22;2256;48.740;9.106;2023-03-23T01:20:22;12.70;93.10
4487;DHT22;2256;48.740;9.106;2023-03-23T01:22:49;12.60;93.10
4487;DHT22;2256;48.740;9.106;2023-03-23T01:25:16;12.70;93.00
4487;DHT22;2256;48.740;9.106;2023-03-23T01:27:43;12.70;93.10
4487;DHT22;2256;48.740;9.106;2023-03-23T01:30:11;12.70;93.00
4487;DHT22;2256;48.740;9.106;2023-03-23T01:32:40;12.70;93.00
4487;DHT22;2256;48.740;9.106;2023-03-23T01:35:07;12.70;93.00
4487;DHT22;2256;48.740;9.106;2023-03-23T01:37:35;12.60;93.00
4487;DHT22;2256;48.740;9.106;2023-03-23T01:40:02;12.60;92.90
4487;DHT22;2256;48.740;9.106;2023-03-23T01:42:32;12.50;93.00
4487;DHT22;2256;48.740;9.106;2023-03-23T01:45:34;12.40;93.00
4487;DHT22;2256;48.740;9.106;2023-03-23T01:48:09;12.40;93.00
4487;DHT22;2256;48.740;9.106;2023-03-23T01:50:43;12.50;92.90
4487;DHT22;2256;48.740;9.106;2023-03-23T01:53:11;12.50;92.80
4487;DHT22;2256;48.740;9.106;2023-03-23T01:55:40;12.40;92.80
4487;DHT22;2256;48.740;9.106;2023-03-23T01:58:08;12.50;92.80
4487;DHT22;2256;48.740;9.106;2023-03-23T02:00:36;12.50;92.90
4487;DHT22;2256;48.740;9.106;2023-03-23T02:03:07;12.40;92.90
4487;DHT22;2256;48.740;9.106;2023-03-23T02:05:39;12.40;93.00
4487;DHT22;2256;48.740;9.106;2023-03-23T02:08:08;12.50;92.80
4487;DHT22;2256;48.740;9.106;2023-03-23T02:10:37;12.40;92.90
4487;DHT22;2256;48.740;9.106;2023-03-23T02:13:08;12.40;93.00
4487;DHT22;2256;48.740;9.106;2023-03-23T02:15:42;12.40;93.00
4487;DHT22;2256;48.740;9.106;2023-03-23T02:18:23;12.40;93.10
4487;DHT22;2256;48.740;9.106;2023-03-23T02:27:12;12.50;93.60
4487;DHT22;2256;48.740;9.106;2023-03-23T02:29:56;12.60;93.80
4487;DHT22;2256;48.740;9.106;2023-03-23T02:33:06;12.60;93.80
4487;DHT22;2256;48.740;9.106;2023-03-23T02:35:36;12.60;94.00
4487;DHT22;2256;48.740;9.106;2023-03-23T02:38:08;12.70;94.10
4487;DHT22;2256;48.740;9.106;2023-03-23T02:40:39;12.70;94.00
4487;DHT22;2256;48.740;9.106;2023-03-23T02:43:09;12.70;94.00
4487;DHT22;2256;48.740;9.106;2023-03-23T02:45:38;12.70;94.00
4487;DHT22;2256;48.740;9.106;2023-03-23T02:48:08;12.70;93.90
4487;DHT22;2256;48.740;9.106;2023-03-23T02:50:36;12.70;94.10
4487;DHT22;2256;48.740;9.106;2023-03-23T02:53:07;12.50;94.20
4487;DHT22;2256;48.740;9.106;2023-03-23T02:55:36;12.50;94.20
4487;DHT22;2256;48.740;9.106;2023-03-23T02:58:06;12.50;94.30
4487;DHT22;2256;48.740;9.106;2023-03-23T03:00:33;12.60;94.30
4487;DHT22;2256;48.740;9.106;2023-03-23T03:03:00;12.60;94.30
4487;DHT22;2256;48.740;9.106;2023-03-23T03:05:36;12.60;94.20
4487;DHT22;2256;48.740;9.106;2023-03-23T03:08:13;12.60;94.20
4487;DHT22;2256;48.740;9.106;2023-03-23T03:10:48;12.50;94.20
4487;DHT22;2256;48.740;9.106;2023-03-23T03:13:25;12.60;94.10
4487;DHT22;2256;48.740;9.106;2023-03-23T03:15:59;12.60;94.00
4487;DHT22;2256;48.740;9.106;2023-03-23T03:18:30;12.60;93.90
4487;DHT22;2256;48.740;9.106;2023-03-23T03:21:02;12.60;93.80
4487;DHT22;2256;48.740;9.106;2023-03-23T03:23:31;12.60;93.90
4487;DHT22;2256;48.740;9.106;2023-03-23T03:26:01;12.60;93.90
4487;DHT22;2256;48.740;9.106;2023-03-23T03:28:31;12.60;93.90
4487;DHT22;2256;48.740;9.106;2023-03-23T03:31:01;12.70;93.90
4487;DHT22;2256;48.740;9.106;2023-03-23T03:33:30;12.60;93.80
4487;DHT22;2256;48.740;9.106;2023-03-23T03:36:01;12.60;94.00
4487;DHT22;2256;48.740;9.106;2023-03-23T03:38:28;12.60;94.00
4487;DHT22;2256;48.740;9.106;2023-03-23T03:40:56;12.60;94.00
4487;DHT22;2256;48.740;9.106;2023-03-23T03:43:23;12.70;93.90
4487;DHT22;2256;48.740;9.106;2023-03-23T03:45:50;12.70;93.90
4487;DHT22;2256;48.740;9.106;2023-03-23T03:48:17;12.90;93.90
4487;DHT22;2256;48.740;9.106;2023-03-23T03:50:44;12.90;93.90
4487;DHT22;2256;48.740;9.106;2023-03-23T03:53:12;12.80;93.90
4487;DHT22;2256;48.740;9.106;2023-03-23T03:55:39;12.80;94.00
4487;DHT22;2256;48.740;9.106;2023-03-23T03:58:11;12.70;94.10
4487;DHT22;2256;48.740;9.106;2023-03-23T04:00:38;12.80;94.20
4487;DHT22;2256;48.740;9.106;2023-03-23T04:03:05;12.80;94.10
4487;DHT22;2256;48.740;9.106;2023-03-23T04:05:33;12.80;94.20
4487;DHT22;2256;48.740;9.106;2023-03-23T04:07:59;12.80;94.20
4487;DHT22;2256;48.740;9.106;2023-03-23T04:10:30;12.80;94.40
4487;DHT22;2256;48.740;9.106;2023-03-23T04:12:57;12.60;94.40
4487;DHT22;2256;48.740;9.106;2023-03-23T04:15:24;12.60;94.50
4487;DHT22;2256;48.740;9.106;2023-03-23T04:17:51;12.50;94.50
4487;DHT22;2256;48.740;9.106;2023-03-23T04:20:18;12.70;94.70
4487;DHT22;2256;48.740;9.106;2023-03-23T04:22:46;12.70;94.50
4487;DHT22;2256;48.740;9.106;2023-03-23T04:25:16;12.80;94.50
4487;DHT22;2256;48.740;9.106;2023-03-23T04:27:47;12.80;94.40
4487;DHT22;2256;48.740;9.106;2023-03-23T04:30:20;12.80;94.40
4487;DHT22;2256;48.740;9.106;2023-03-23T04:32:48;12.80;94.30
4487;DHT22;2256;48.740;9.106;2023-03-23T04:35:18;13.00;94.30
4487;DHT22;2256;48.740;9.106;2023-03-23T04:37:46;13.00;94.20
4487;DHT22;2256;48.740;9.106;2023-03-23T04:40:14;13.20;94.00
4487;DHT22;2256;48.740;9.106;2023-03-23T04:42:43;13.20;94.00
4487;DHT22;2256;48.740;9.106;2023-03-23T04:45:13;13.20;94.10
4487;DHT22;2256;48.740;9.106;2023-03-23T04:47:41;13.10;93.90
4487;DHT22;2256;48.740;9.106;2023-03-23T04:50:14;13.10;93.90
4487;DHT22;2256;48.740;9.106;2023-03-23T04:52:42;13.00;94.20
4487;DHT22;2256;48.740;9.106;2023-03-23T04:55:10;13.10;94.20
4487;DHT22;2256;48.740;9.106;2023-03-23T04:57:37;13.00;94.20
4487;DHT22;2256;48.740;9.106;2023-03-23T05:00:05;13.00;94.50
4487;DHT22;2256;48.740;9.106;2023-03-23T05:02:36;13.10;94.30
4487;DHT22;2256;48.740;9.106;2023-03-23T05:05:05;13.00;94.30
4487;DHT22;2256;48.740;9.106;2023-03-23T05:07:32;13.10;94.20
4487;DHT22;2256;48.740;9.106;2023-03-23T05:09:59;13.10;94.20
4487;DHT22;2256;48.740;9.106;2023-03-23T05:12:26;13.20;94.00
4487;DHT22;2256;48.740;9.106;2023-03-23T05:14:53;13.10;94.00
4487;DHT22;2256;48.740;9.106;2023-03-23T05:17:20;13.20;94.00
4487;DHT22;2256;48.740;9.106;2023-03-23T05:19:50;13.30;94.00
4487;DHT22;2256;48.740;9.106;2023-03-23T05:22:18;13.20;93.90
4487;DHT22;2256;48.740;9.106;2023-03-23T05:24:46;13.20;93.90
4487;DHT22;2256;48.740;9.106;2023-03-23T05:27:13;13.20;94.00
4487;DHT22;2256;48.740;9.106;2023-03-23T05:29:43;13.20;93.90
4487;DHT22;2256;48.740;9.106;2023-03-23T05:32:11;13.30;93.80
4487;DHT22;2256;48.740;9.106;2023-03-23T05:34:38;13.20;94.00
4487;DHT22;2256;48.740;9.106;2023-03-23T05:37:07;13.30;93.80
4487;DHT22;2256;48.740;9.106;2023-03-23T05:39:35;13.30;93.90
4487;DHT22;2256;48.740;9.106;2023-03-23T05:42:02;13.20;94.00
4487;DHT22;2256;48.740;9.106;2023-03-23T05:44:29;13.30;94.00
4487;DHT22;2256;48.740;9.106;2023-03-23T05:46:56;13.20;94.00
4487;DHT22;2256;48.740;9.106;2023-03-23T05:49:23;13.20;93.80
4487;DHT22;2256;48.740;9.106;2023-03-23T05:51:52;13.40;93.80
4487;DHT22;2256;48.740;9.106;2023-03-23T05:54:20;13.40;93.70
4487;DHT22;2256;48.740;9.106;2023-03-23T05:56:47;13.40;93.80
4487;DHT22;2256;48.740;9.106;2023-03-23T05:59:14;13.40;93.70
4487;DHT22;2256;48.740;9.106;2023-03-23T06:01:41;13.50;93.80
4487;DHT22;2256;48.740;9.106;2023-03-23T06:04:08;13.40;94.10
4487;DHT22;2256;48.740;9.106;2023-03-23T06:06:34;13.50;93.80
4487;DHT22;2256;48.740;9.106;2023-03-23T06:09:02;13.70;93.80
4487;DHT22;2256;48.740;9.106;2023-03-23T06:11:30;13.70;93.60
4487;DHT22;2256;48.740;9.106;2023-03-23T06:13:57;13.70;93.60
4487;DHT22;2256;48.740;9.106;2023-03-23T06:16:24;13.80;93.60
4487;DHT22;2256;48.740;9.106;2023-03-23T06:18:51;13.70;93.60
4487;DHT22;2256;48.740;9.106;2023-03-23T06:21:18;13.70;93.70
4487;DHT22;2256;48.740;9.106;2023-03-23T06:23:45;13.70;93.70
4487;DHT22;2256;48.740;9.106;2023-03-23T06:26:13;13.70;93.70
4487;DHT22;2256;48.740;9.106;2023-03-23T06:28:43;13.90;93.90
4487;DHT22;2256;48.740;9.106;2023-03-23T06:31:10;13.90;94.00
4487;DHT22;2256;48.740;9.106;2023-03-23T06:33:38;13.90;93.70
4487;DHT22;2256;48.740;9.106;2023-03-23T06:36:07;14.10;93.50
4487;DHT22;2256;48.740;9.106;2023-03-23T06:38:34;13.90;93.50
4487;DHT22;2256;48.740;9.106;2023-03-23T06:41:01;13.90;93.90
4487;DHT22;2256;48.740;9.106;2023-03-23T06:43:28;13.90;93.70
4487;DHT22;2256;48.740;9.106;2023-03-23T06:45:58;13.90;93.70
4487;DHT22;2256;48.740;9.106;2023-03-23T06:48:25;13.80;93.90
4487;DHT22;2256;48.740;9.106;2023-03-23T06:50:52;13.90;94.10
4487;DHT22;2256;48.740;9.106;2023-03-23T06:53:19;14.00;94.00
4487;DHT22;2256;48.740;9.106;2023-03-23T06:55:46;14.10;93.90
4487;DHT22;2256;48.740;9.106;2023-03-23T06:58:13;14.30;93.80
4487;DHT22;2256;48.740;9.106;2023-03-23T07:00:40;14.40;93.50
4487;DHT22;2256;48.740;9.106;2023-03-23T07:03:08;14.60;93.20
4487;DHT22;2256;48.740;9.106;2023-03-23T07:05:35;14.70;93.00
4487;DHT22;2256;48.740;9.106;2023-03-23T07:08:02;14.70;93.20
4487;DHT22;2256;48.740;9.106;2023-03-23T07:10:30;14.70;93.10
4487;DHT22;2256;48.740;9.106;2023-03-23T07:12:57;14.80;92.90
4487;DHT22;2256;48.740;9.106;2023-03-23T07:15:24;14.80;93.30
4487;DHT22;2256;48.740;9.106;2023-03-23T07:17:52;14.70;93.00
4487;DHT22;2256;48.740;9.106;2023-03-23T07:20:21;14.70;93.00
4487;DHT22;2256;48.740;9.106;2023-03-23T07:22:48;14.70;92.90
4487;DHT22;2256;48.740;9.106;2023-03-23T07:25:15;14.60;93.20
4487;DHT22;2256;48.740;9.106;2023-03-23T07:27:44;14.50;93.10
4487;DHT22;2256;48.740;9.106;2023-03-23T07:30:12;14.50;93.30
4487;DHT22;2256;48.740;9.106;2023-03-23T07:32:39;14.40;93.40
4487;DHT22;2256;48.740;9.106;2023-03-23T07:35:07;14.40;93.40
4487;DHT22;2256;48.740;9.106;2023-03-23T07:37:35;14.40;93.60
4487;DHT22;2256;48.740;9.106;2023-03-23T07:40:03;14.40;93.80
4487;DHT22;2256;48.740;9.106;2023-03-23T07:42:40;14.40;93.80
4487;DHT22;2256;48.740;9.106;2023-03-23T07:45:07;14.50;94.00
4487;DHT22;2256;48.740;9.106;2023-03-23T07:47:34;14.60;93.80
4487;DHT22;2256;48.740;9.106;2023-03-23T07:50:02;14.70;93.90
4487;DHT22;2256;48.740;9.106;2023-03-23T07:52:29;14.90;93.90
4487;DHT22;2256;48.740;9.106;2023-03-23T07:54:58;15.00;93.90
4487;DHT22;2256;48.740;9.106;2023-03-23T07:57:26;15.30;93.80
4487;DHT22;2256;48.740;9.106;2023-03-23T07:59:53;15.50;93.70
4487;DHT22;2256;48.740;9.106;2023-03-23T08:02:21;15.70;93.50
4487;DHT22;2256;48.740;9.106;2023-03-23T08:04:48;15.90;93.50
4487;DHT22;2256;48.740;9.106;2023-03-23T08:07:15;15.90;93.30
4487;DHT22;2256;48.740;9.106;2023-03-23T08:09:42;15.90;93.50
4487;DHT22;2256;48.740;9.106;2023-03-23T08:12:11;15.90;93.60
4487;DHT22;2256;48.740;9.106;2023-03-23T08:14:37;15.80;93.80
4487;DHT22;2256;48.740;9.106;2023-03-23T08:17:05;15.70;93.90
4487;DHT22;2256;48.740;9.106;2023-03-23T08:19:32;15.70;94.10
4487;DHT22;2256;48.740;9.106;2023-03-23T08:22:02;15.70;94.60
4487;DHT22;2256;48.740;9.106;2023-03-23T08:24:29;15.70;94.50
4487;DHT22;2256;48.740;9.106;2023-03-23T08:26:56;15.80;94.60
4487;DHT22;2256;48.740;9.106;2023-03-23T08:29:24;15.90;94.60
4487;DHT22;2256;48.740;9.106;2023-03-23T08:31:51;16.00;94.50
4487;DHT22;2256;48.740;9.106;2023-03-23T08:34:19;16.00;94.80
4487;DHT22;2256;48.740;9.106;2023-03-23T08:36:47;16.10;94.80
4487;DHT22;2256;48.740;9.106;2023-03-23T08:39:13;15.90;95.00
4487;DHT22;2256;48.740;9.106;2023-03-23T08:41:41;15.80;95.20
4487;DHT22;2256;48.740;9.106;2023-03-23T08:44:10;15.60;95.40
4487;DHT22;2256;48.740;9.106;2023-03-23T08:46:39;15.60;95.70
4487;DHT22;2256;48.740;9.106;2023-03-23T08:49:06;15.50;95.70
4487;DHT22;2256;48.740;9.106;2023-03-23T08:51:33;15.50;96.00
4487;DHT22;2256;48.740;9.106;2023-03-23T08:54:01;15.60;96.00
4487;DHT22;2256;48.740;9.106;2023-03-23T08:56:27;15.60;95.90
4487;DHT22;2256;48.740;9.106;2023-03-23T08:58:57;15.50;95.90
4487;DHT22;2256;48.740;9.106;2023-03-23T09:01:24;15.50;96.00
4487;DHT22;2256;48.740;9.106;2023-03-23T09:03:53;15.60;96.20
4487;DHT22;2256;48.740;9.106;2023-03-23T09:06:20;15.80;96.20
4487;DHT22;2256;48.740;9.106;2023-03-23T09:08:47;16.00;96.00
4487;DHT22;2256;48.740;9.106;2023-03-23T09:11:15;16.30;95.70
4487;DHT22;2256;48.740;9.106;2023-03-23T09:13:42;16.50;95.50
4487;DHT22;2256;48.740;9.106;2023-03-23T09:16:09;16.70;95.50
4487;DHT22;2256;48.740;9.106;2023-03-23T09:18:36;16.90;95.20
4487;DHT22;2256;48.740;9.106;2023-03-23T09:21:05;17.00;95.20
4487;DHT22;2256;48.740;9.106;2023-03-23T09:23:32;17.00;94.60
4487;DHT22;2256;48.740;9.106;2023-03-23T09:26:00;17.00;94.60
4487;DHT22;2256;48.740;9.106;2023-03-23T09:28:27;16.80;94.60
4487;DHT22;2256;48.740;9.106;2023-03-23T09:30:54;16.90;94.80
4487;DHT22;2256;48.740;9.106;2023-03-23T09:33:23;17.00;95.00
4487;DHT22;2256;48.740;9.106;2023-03-23T09:35:50;17.00;94.70
4487;DHT22;2256;48.740;9.106;2023-03-23T09:38:18;16.70;94.40
4487;DHT22;2256;48.740;9.106;2023-03-23T09:40:48;16.60;94.70
4487;DHT22;2256;48.740;9.106;2023-03-23T09:43:36;16.30;94.80
4487;DHT22;2256;48.740;9.106;2023-03-23T09:46:26;16.20;95.20
4487;DHT22;2256;48.740;9.106;2023-03-23T09:48:56;16.20;95.30
4487;DHT22;2256;48.740;9.106;2023-03-23T09:51:32;16.20;95.40
4487;DHT22;2256;48.740;9.106;2023-03-23T09:54:09;16.20;95.40
4487;DHT22;2256;48.740;9.106;2023-03-23T09:56:37;16.30;95.70
4487;DHT22;2256;48.740;9.106;2023-03-23T09:59:13;16.50;95.50
4487;DHT22;2256;48.740;9.106;2023-03-23T10:01:44;16.70;95.20
4487;DHT22;2256;48.740;9.106;2023-03-23T10:04:19;16.90;95.20
4487;DHT22;2256;48.740;9.106;2023-03-23T10:06:48;17.00;95.10
4487;DHT22;2256;48.740;9.106;2023-03-23T10:09:19;17.10;95.00
4487;DHT22;2256;48.740;9.106;2023-03-23T10:11:53;17.40;94.50
4487;DHT22;2256;48.740;9.106;2023-03-23T10:14:37;17.80;94.30
4487;DHT22;2256;48.740;9.106;2023-03-23T10:17:13;18.10;94.20
4487;DHT22;2256;48.740;9.106;2023-03-23T10:19:47;18.50;93.80
4487;DHT22;2256;48.740;9.106;2023-03-23T10:22:21;18.50;93.90
4487;DHT22;2256;48.740;9.106;2023-03-23T10:24:54;18.80;93.70
4487;DHT22;2256;48.740;9.106;2023-03-23T10:27:26;18.90;93.10
4487;DHT22;2256;48.740;9.106;2023-03-23T10:29:59;18.60;93.50
4487;DHT22;2256;48.740;9.106;2023-03-23T10:32:41;18.50;93.40
4487;DHT22;2256;48.740;9.106;2023-03-23T10:35:13;18.10;93.40
4487;DHT22;2256;48.740;9.106;2023-03-23T10:37:46;17.80;94.10
4487;DHT22;2256;48.740;9.106;2023-03-23T10:40:17;17.50;94.30
4487;DHT22;2256;48.740;9.106;2023-03-23T10:42:46;17.50;94.50
4487;DHT22;2256;48.740;9.106;2023-03-23T10:45:17;17.60;94.70
4487;DHT22;2256;48.740;9.106;2023-03-23T10:47:48;17.90;94.50
4487;DHT22;2256;48.740;9.106;2023-03-23T10:50:21;18.00;94.30
4487;DHT22;2256;48.740;9.106;2023-03-23T10:52:50;18.10;94.50
4487;DHT22;2256;48.740;9.106;2023-03-23T10:55:21;18.50;94.40
4487;DHT22;2256;48.740;9.106;2023-03-23T10:57:59;18.90;94.40
4487;DHT22;2256;48.740;9.106;2023-03-23T11:00:28;19.20;93.70
4487;DHT22;2256;48.740;9.106;2023-03-23T11:03:01;19.30;93.30
4487;DHT22;2256;48.740;9.106;2023-03-23T11:05:34;19.30;93.00
4487;DHT22;2256;48.740;9.106;2023-03-23T11:08:03;19.30;92.80
4487;DHT22;2256;48.740;9.106;2023-03-23T11:10:41;19.10;93.20
4487;DHT22;2256;48.740;9.106;2023-03-23T11:13:13;19.10;93.50
4487;DHT22;2256;48.740;9.106;2023-03-23T11:15:41;19.00;92.60
4487;DHT22;2256;48.740;9.106;2023-03-23T11:18:11;18.70;93.40
4487;DHT22;2256;48.740;9.106;2023-03-23T11:20:41;18.70;93.30
4487;DHT22;2256;48.740;9.106;2023-03-23T11:23:13;18.70;93.80
4487;DHT22;2256;48.740;9.106;2023-03-23T11:26:08;18.60;93.80
4487;DHT22;2256;48.740;9.106;2023-03-23T11:28:38;18.50;94.30
4487;DHT22;2256;48.740;9.106;2023-03-23T11:31:09;18.20;94.40
4487;DHT22;2256;48.740;9.106;2023-03-23T11:33:38;18.00;95.00
4487;DHT22;2256;48.740;9.106;2023-03-23T11:36:06;17.90;95.10
4487;DHT22;2256;48.740;9.106;2023-03-23T11:38:35;18.10;94.90
4487;DHT22;2256;48.740;9.106;2023-03-23T11:41:09;18.30;94.70
4487;DHT22;2256;48.740;9.106;2023-03-23T11:43:39;18.60;94.40
4487;DHT22;2256;48.740;9.106;2023-03-23T11:46:13;18.90;94.00
4487;DHT22;2256;48.740;9.106;2023-03-23T11:48:46;19.10;93.50
4487;DHT22;2256;48.740;9.106;2023-03-23T11:51:19;19.20;92.80
4487;DHT22;2256;48.740;9.106;2023-03-23T11:53:49;19.10;92.70
4487;DHT22;2256;48.740;9.106;2023-03-23T11:56:24;19.10;93.10
4487;DHT22;2256;48.740;9.106;2023-03-23T11:58:53;19.20;92.60
4487;DHT22;2256;48.740;9.106;2023-03-23T12:01:29;19.10;92.50
4487;DHT22;2256;48.740;9.106;2023-03-23T12:04:14;19.00;92.30
4487;DHT22;2256;48.740;9.106;2023-03-23T12:06:49;18.80;92.40
4487;DHT22;2256;48.740;9.106;2023-03-23T12:09:35;18.70;92.70
4487;DHT22;2256;48.740;9.106;2023-03-23T12:12:12;18.70;92.40
4487;DHT22;2256;48.740;9.106;2023-03-23T12:14:48;18.60;92.60
4487;DHT22;2256;48.740;9.106;2023-03-23T12:17:26;18.60;92.30
4487;DHT22;2256;48.740;9.106;2023-03-23T12:20:09;18.40;92.60
4487;DHT22;2256;48.740;9.106;2023-03-23T12:22:49;18.40;92.70
4487;DHT22;2256;48.740;9.106;2023-03-23T12:28:19;18.20;92.80
4487;DHT22;2256;48.740;9.106;2023-03-23T12:30:54;18.20;93.00
4487;DHT22;2256;48.740;9.106;2023-03-23T12:33:28;18.30;93.50
4487;DHT22;2256;48.740;9.106;2023-03-23T12:36:08;18.40;92.70
4487;DHT22;2256;48.740;9.106;2023-03-23T12:38:49;18.40;92.60
4487;DHT22;2256;48.740;9.106;2023-03-23T12:41:18;18.30;92.80
4487;DHT22;2256;48.740;9.106;2023-03-23T12:43:57;18.40;93.20
4487;DHT22;2256;48.740;9.106;2023-03-23T12:46:52;18.60;93.00
4487;DHT22;2256;48.740;9.106;2023-03-23T12:49:24;18.80;92.80
4487;DHT22;2256;48.740;9.106;2023-03-23T12:51:57;19.10;92.60
4487;DHT22;2256;48.740;9.106;2023-03-23T12:54:29;19.30;92.60
4487;DHT22;2256;48.740;9.106;2023-03-23T12:57:02;19.40;92.20
4487;DHT22;2256;48.740;9.106;2023-03-23T12:59:36;19.30;92.40
4487;DHT22;2256;48.740;9.106;2023-03-23T13:02:14;19.20;92.20
4487;DHT22;2256;48.740;9.106;2023-03-23T13:04:46;19.00;92.30
4487;DHT22;2256;48.740;9.106;2023-03-23T13:07:17;19.00;92.50
4487;DHT22;2256;48.740;9.106;2023-03-23T13:09:50;19.00;92.20
4487;DHT22;2256;48.740;9.106;2023-03-23T13:12:19;19.00;92.70
4487;DHT22;2256;48.740;9.106;2023-03-23T13:14:56;19.20;92.60
4487;DHT22;2256;48.740;9.106;2023-03-23T13:17:34;19.30;92.80
4487;DHT22;2256;48.740;9.106;2023-03-23T13:20:29;19.40;92.40
4487;DHT22;2256;48.740;9.106;2023-03-23T13:23:01;19.50;92.10
4487;DHT22;2256;48.740;9.106;2023-03-23T13:25:48;19.60;92.50
4487;DHT22;2256;48.740;9.106;2023-03-23T13:28:17;19.60;92.10
4487;DHT22;2256;48.740;9.106;2023-03-23T13:30:56;19.50;92.00
4487;DHT22;2256;48.740;9.106;2023-03-23T13:33:23;19.40;92.10
4487;DHT22;2256;48.740;9.106;2023-03-23T13:35:51;19.40;91.50
4487;DHT22;2256;48.740;9.106;2023-03-23T13:38:21;19.50;91.70
4487;DHT22;2256;48.740;9.106;2023-03-23T13:40:50;19.60;91.90
4487;DHT22;2256;48.740;9.106;2023-03-23T13:43:27;19.50;91.00
4487;DHT22;2256;48.740;9.106;2023-03-23T13:46:05;19.30;91.10
4487;DHT22;2256;48.740;9.106;2023-03-23T13:48:42;19.20;91.40
4487;DHT22;2256;48.740;9.106;2023-03-23T13:51:26;19.20;91.70
4487;DHT22;2256;48.740;9.106;2023-03-23T13:54:06;19.30;91.70
4487;DHT22;2256;48.740;9.106;2023-03-23T13:56:39;19.50;91.40
4487;DHT22;2256;48.740;9.106;2023-03-23T13:59:12;19.40;91.50
4487;DHT22;2256;48.740;9.106;2023-03-23T14:01:42;19.40;91.50
4487;DHT22;2256;48.740;9.106;2023-03-23T14:04:14;19.10;91.60
4487;DHT22;2256;48.740;9.106;2023-03-23T14:06:43;18.90;91.70
4487;DHT22;2256;48.740;9.106;2023-03-23T14:09:14;18.80;91.90
4487;DHT22;2256;48.740;9.106;2023-03-23T14:11:48;18.60;92.10
4487;DHT22;2256;48.740;9.106;2023-03-23T14:14:22;18.50;92.40
4487;DHT22;2256;48.740;9.106;2023-03-23T14:16:52;18.50;92.20
4487;DHT22;2256;48.740;9.106;2023-03-23T14:19:24;18.50;92.30
4487;DHT22;2256;48.740;9.106;2023-03-23T14:21:54;18.30;91.30
4487;DHT22;2256;48.740;9.106;2023-03-23T14:24:23;18.10;91.20
4487;DHT22;2256;48.740;9.106;2023-03-23T14:26:52;18.00;91.20
4487;DHT22;2256;48.740;9.106;2023-03-23T14:29:20;17.90;91.30
4487;DHT22;2256;48.740;9.106;2023-03-23T14:31:54;17.90;91.50
4487;DHT22;2256;48.740;9.106;2023-03-23T14:34:25;17.90;91.70
4487;DHT22;2256;48.740;9.106;2023-03-23T14:36:53;18.00;91.50
4487;DHT22;2256;48.740;9.106;2023-03-23T14:39:24;18.00;91.50
4487;DHT22;2256;48.740;9.106;2023-03-23T14:41:53;18.10;91.80
4487;DHT22;2256;48.740;9.106;2023-03-23T14:44:23;18.00;92.00
4487;DHT22;2256;48.740;9.106;2023-03-23T14:46:51;18.00;91.90
4487;DHT22;2256;48.740;9.106;2023-03-23T14:49:26;18.00;91.80
4487;DHT22;2256;48.740;9.106;2023-03-23T14:51:55;18.00;91.60
4487;DHT22;2256;48.740;9.106;2023-03-23T14:54:24;18.00;91.50
4487;DHT22;2256;48.740;9.106;2023-03-23T14:56:52;18.00;91.50
4487;DHT22;2256;48.740;9.106;2023-03-23T14:59:19;17.90;91.40
4487;DHT22;2256;48.740;9.106;2023-03-23T15:01:47;17.90;91.20
4487;DHT22;2256;48.740;9.106;2023-03-23T15:04:17;17.90;91.10
4487;DHT22;2256;48.740;9.106;2023-03-23T15:06:49;17.80;90.90
4487;DHT22;2256;48.740;9.106;2023-03-23T15:09:20;17.80;91.10
4487;DHT22;2256;48.740;9.106;2023-03-23T15:11:54;17.80;91.30
4487;DHT22;2256;48.740;9.106;2023-03-23T15:14:23;17.90;91.20
4487;DHT22;2256;48.740;9.106;2023-03-23T15:16:52;18.00;91.00
4487;DHT22;2256;48.740;9.106;2023-03-23T15:19:22;18.00;90.60
4487;DHT22;2256;48.740;9.106;2023-03-23T15:21:53;17.90;91.00
4487;DHT22;2256;48.740;9.106;2023-03-23T15:24:27;18.00;90.70
4487;DHT22;2256;48.740;9.106;2023-03-23T15:27:10;17.80;90.40
4487;DHT22;2256;48.740;9.106;2023-03-23T15:29:47;17.70;90.60
4487;DHT22;2256;48.740;9.106;2023-03-23T15:32:19;17.60;90.50
4487;DHT22;2256;48.740;9.106;2023-03-23T15:34:46;17.60;90.70
4487;DHT22;2256;48.740;9.106;2023-03-23T15:37:20;17.50;90.50
4487;DHT22;2256;48.740;9.106;2023-03-23T15:39:47;17.40;90.50
4487;DHT22;2256;48.740;9.106;2023-03-23T15:42:24;17.30;90.50
4487;DHT22;2256;48.740;9.106;2023-03-23T15:44:56;17.20;90.70
4487;DHT22;2256;48.740;9.106;2023-03-23T15:47:34;17.10;91.00
4487;DHT22;2256;48.740;9.106;2023-03-23T15:50:04;17.00;91.00
4487;DHT22;2256;48.740;9.106;2023-03-23T15:52:35;16.90;91.20
4487;DHT22;2256;48.740;9.106;2023-03-23T15:55:02;16.80;91.50
4487;DHT22;2256;48.740;9.106;2023-03-23T15:57:29;16.80;91.40
4487;DHT22;2256;48.740;9.106;2023-03-23T15:59:56;16.70;91.40
4487;DHT22;2256;48.740;9.106;2023-03-23T16:02:24;16.70;91.60
4487;DHT22;2256;48.740;9.106;2023-03-23T16:04:51;16.80;91.40
4487;DHT22;2256;48.740;9.106;2023-03-23T16:07:22;16.70;91.40
4487;DHT22;2256;48.740;9.106;2023-03-23T16:09:51;16.60;91.10
4487;DHT22;2256;48.740;9.106;2023-03-23T16:12:18;16.50;91.60
4487;DHT22;2256;48.740;9.106;2023-03-23T16:14:45;16.30;91.80
4487;DHT22;2256;48.740;9.106;2023-03-23T16:17:18;16.30;91.90
4487;DHT22;2256;48.740;9.106;2023-03-23T16:19:46;16.20;92.10
4487;DHT22;2256;48.740;9.106;2023-03-23T16:22:12;16.20;92.40
4487;DHT22;2256;48.740;9.106;2023-03-23T16:24:39;16.20;92.20
4487;DHT22;2256;48.740;9.106;2023-03-23T16:27:10;16.20;91.90
4487;DHT22;2256;48.740;9.106;2023-03-23T16:29:36;16.10;92.10
4487;DHT22;2256;48.740;9.106;2023-03-23T16:32:03;16.10;92.20